createdAt,value
2019-02-23T00:00:46.962Z,83.50
2019-02-23T00:03:15.419Z,83.20
2019-02-23T00:05:43.863Z,83.90
2019-02-23T00:08:12.321Z,84.20
2019-02-23T00:10:40.761Z,84.10
2019-02-23T00:13:09.208Z,83.40
2019-02-23T00:15:37.675Z,83.50
2019-02-23T00:18:06.173Z,83.50
2019-02-23T00:20:34.719Z,84.00
2019-02-23T00:23:03.223Z,84.20
2019-02-23T00:25:31.663Z,84.40
2019-02-23T00:28:00.251Z,84.90
2019-02-23T00:30:28.696Z,84.20
2019-02-23T00:32:57.138Z,83.80
2019-02-23T00:35:25.580Z,83.60
2019-02-23T00:37:54.037Z,84.40
2019-02-23T00:40:22.491Z,84.20
2019-02-23T00:42:50.938Z,84.00
2019-02-23T00:45:19.387Z,83.60
2019-02-23T00:47:47.836Z,83.30
2019-02-23T00:50:16.275Z,83.00
2019-02-23T00:52:44.727Z,83.30
2019-02-23T00:55:13.175Z,83.70
2019-02-23T00:57:41.629Z,83.30
2019-02-23T01:00:11.715Z,82.20
2019-02-23T01:02:40.232Z,82.70
2019-02-23T01:05:08.733Z,82.60
2019-02-23T01:07:37.187Z,82.80
2019-02-23T01:10:08.551Z,82.70
2019-02-23T01:12:37.072Z,83.00
2019-02-23T01:15:08.367Z,83.10
2019-02-23T01:17:36.820Z,83.50
2019-02-23T01:20:07.811Z,83.00
2019-02-23T01:22:36.264Z,83.00
2019-02-23T01:25:05.742Z,83.00
2019-02-23T01:27:34.193Z,83.20
2019-02-23T01:30:02.716Z,82.50
2019-02-23T01:32:31.160Z,82.60
2019-02-23T01:34:59.616Z,82.90
2019-02-23T01:37:28.064Z,82.90
2019-02-23T01:39:56.537Z,83.30
2019-02-23T01:42:24.990Z,84.70
2019-02-23T01:44:53.437Z,84.30
2019-02-23T01:47:21.885Z,84.80
2019-02-23T01:49:58.537Z,84.60
2019-02-23T01:52:20.508Z,84.80
2019-02-23T01:54:48.972Z,84.90
2019-02-23T01:57:17.402Z,85.10
2019-02-23T01:59:45.843Z,85.00
2019-02-23T02:02:15.232Z,85.10
2019-02-23T02:04:43.688Z,85.30
2019-02-23T02:07:12.147Z,85.60
2019-02-23T02:09:40.732Z,84.80
2019-02-23T02:12:11.049Z,84.50
2019-02-23T02:14:39.500Z,84.70
2019-02-23T02:17:07.997Z,84.70
2019-02-23T02:19:36.464Z,85.00
2019-02-23T02:22:04.958Z,84.80
2019-02-23T02:24:33.401Z,84.80
2019-02-23T02:27:01.851Z,84.90
2019-02-23T02:29:30.307Z,84.00
2019-02-23T02:31:58.746Z,84.20
2019-02-23T02:34:27.196Z,84.10
2019-02-23T02:36:55.627Z,83.50
2019-02-23T02:39:24.082Z,83.60
2019-02-23T02:41:52.540Z,84.00
2019-02-23T02:44:21.001Z,84.30
2019-02-23T02:46:49.450Z,84.10
2019-02-23T02:49:18.367Z,83.90
2019-02-23T02:51:46.810Z,83.90
2019-02-23T02:54:15.280Z,83.70
2019-02-23T02:56:43.724Z,83.40
2019-02-23T02:59:12.176Z,83.10
2019-02-23T03:01:40.692Z,82.90
2019-02-23T03:04:09.222Z,82.60
2019-02-23T03:06:39.319Z,82.60
2019-02-23T03:09:09.504Z,82.60
2019-02-23T03:11:37.935Z,82.60
2019-02-23T03:14:06.393Z,82.50
2019-02-23T03:16:34.829Z,82.10
2019-02-23T03:19:03.295Z,81.90
2019-02-23T03:21:31.726Z,81.70
2019-02-23T03:24:19.514Z,81.50
2019-02-23T03:26:48.038Z,81.10
2019-02-23T03:29:16.481Z,81.40
2019-02-23T03:31:44.923Z,81.80
2019-02-23T03:34:13.373Z,81.50
2019-02-23T03:36:41.807Z,81.50
2019-02-23T03:39:10.264Z,81.00
2019-02-23T03:41:38.708Z,81.10
2019-02-23T03:44:07.151Z,81.40
2019-02-23T03:46:35.592Z,81.60
2019-02-23T03:49:04.050Z,81.60
2019-02-23T03:51:32.491Z,81.60
2019-02-23T03:54:01.122Z,82.00
2019-02-23T03:56:29.567Z,80.90
2019-02-23T03:58:58.273Z,81.10
2019-02-23T04:01:26.720Z,81.60
2019-02-23T04:03:55.161Z,82.20
2019-02-23T04:06:42.942Z,82.70
2019-02-23T04:09:11.395Z,82.50
2019-02-23T04:11:39.854Z,82.60
2019-02-23T04:14:08.318Z,83.00
2019-02-23T04:16:36.750Z,83.20
2019-02-23T04:19:05.207Z,83.40
2019-02-23T04:21:33.654Z,83.90
2019-02-23T04:24:02.103Z,84.10
2019-02-23T04:26:30.545Z,84.30
2019-02-23T04:28:59.033Z,84.30
2019-02-23T04:31:27.488Z,84.30
2019-02-23T04:33:55.955Z,84.60
2019-02-23T04:36:24.394Z,84.30
2019-02-23T04:38:52.851Z,84.50
2019-02-23T04:41:21.289Z,84.20
2019-02-23T04:43:49.772Z,84.00
2019-02-23T04:46:18.210Z,83.90
2019-02-23T04:48:46.944Z,84.00
2019-02-23T04:51:15.386Z,83.90
2019-02-23T04:53:43.828Z,84.20
2019-02-23T04:56:12.276Z,84.60
2019-02-23T04:58:40.721Z,85.10
2019-02-23T05:01:09.160Z,85.40
2019-02-23T05:03:37.599Z,85.50
2019-02-23T05:06:06.052Z,85.70
2019-02-23T05:08:34.487Z,86.20
2019-02-23T05:11:02.947Z,86.50
2019-02-23T05:13:31.390Z,86.70
2019-02-23T05:15:59.921Z,86.80
2019-02-23T05:18:28.368Z,87.20
2019-02-23T05:20:57.074Z,87.20
2019-02-23T05:23:25.578Z,87.10
2019-02-23T05:25:54.049Z,87.00
2019-02-23T05:28:22.487Z,86.80
2019-02-23T05:30:50.940Z,86.50
2019-02-23T05:33:19.386Z,86.80
2019-02-23T05:35:47.843Z,87.10
2019-02-23T05:38:16.286Z,87.30
2019-02-23T05:40:44.767Z,87.00
2019-02-23T05:43:13.190Z,87.20
2019-02-23T05:45:41.647Z,88.40
2019-02-23T05:48:10.097Z,87.70
2019-02-23T05:50:38.716Z,87.90
2019-02-23T05:53:07.227Z,87.80
2019-02-23T05:55:35.678Z,87.80
2019-02-23T05:58:04.116Z,88.10
2019-02-23T06:00:32.640Z,88.20
2019-02-23T06:03:01.124Z,88.30
2019-02-23T06:05:30.662Z,88.40
2019-02-23T06:07:59.170Z,87.90
2019-02-23T06:10:27.629Z,87.50
2019-02-23T06:12:56.157Z,87.60
2019-02-23T06:15:24.905Z,87.60
2019-02-23T06:17:53.346Z,87.50
2019-02-23T06:20:21.797Z,87.60
2019-02-23T06:22:50.272Z,87.70
2019-02-23T06:25:18.762Z,87.80
2019-02-23T06:27:47.219Z,91.10
2019-02-23T06:30:18.354Z,91.30
2019-02-23T06:32:45.902Z,90.10
2019-02-23T06:35:14.344Z,89.00
2019-02-23T06:37:42.787Z,88.00
2019-02-23T06:40:11.947Z,90.30
2019-02-23T06:42:40.420Z,85.30
2019-02-23T06:45:11.416Z,86.40
2019-02-23T06:47:39.857Z,85.10
2019-02-23T06:50:08.652Z,84.50
2019-02-23T06:52:37.094Z,84.50
2019-02-23T06:55:06.710Z,83.80
2019-02-23T06:57:35.146Z,81.00
2019-02-23T07:00:24.455Z,80.10
2019-02-23T07:02:52.881Z,76.80
2019-02-23T07:05:21.339Z,76.00
2019-02-23T07:07:49.783Z,76.00
2019-02-23T07:10:18.232Z,77.80
2019-02-23T07:12:46.683Z,74.90
2019-02-23T07:15:15.128Z,74.10
2019-02-23T07:17:43.569Z,74.40
2019-02-23T07:20:12.165Z,79.60
2019-02-23T07:22:40.598Z,76.10
2019-02-23T07:25:10.097Z,72.30
2019-02-23T07:27:38.567Z,78.60
2019-02-23T07:30:12.303Z,80.10
2019-02-23T07:32:40.732Z,72.00
2019-02-23T07:35:09.714Z,69.90
2019-02-23T07:37:38.151Z,70.80
2019-02-23T07:40:09.857Z,71.00
2019-02-23T07:42:38.298Z,70.00
2019-02-23T07:45:08.787Z,70.10
2019-02-23T07:47:37.227Z,67.80
2019-02-23T07:50:13.974Z,72.50
2019-02-23T07:52:42.422Z,66.20
2019-02-23T07:55:10.880Z,66.50
2019-02-23T07:57:39.351Z,65.00
2019-02-23T08:00:11.192Z,64.00
2019-02-23T08:02:39.629Z,65.10
2019-02-23T08:05:09.600Z,61.70
2019-02-23T08:07:39.970Z,60.90
2019-02-23T08:10:10.357Z,57.80
2019-02-23T08:12:38.859Z,58.40
2019-02-23T08:15:09.847Z,57.80
2019-02-23T08:17:38.287Z,58.10
2019-02-23T08:20:09.869Z,56.70
2019-02-23T08:22:38.310Z,54.10
2019-02-23T08:25:09.683Z,52.10
2019-02-23T08:27:38.139Z,50.90
2019-02-23T08:30:16.865Z,48.40
2019-02-23T08:32:45.326Z,48.50
2019-02-23T08:35:15.209Z,48.40
2019-02-23T08:37:43.659Z,48.50
2019-02-23T08:40:14.166Z,49.30
2019-02-23T08:42:42.702Z,49.90
2019-02-23T08:45:11.135Z,49.70
2019-02-23T08:47:39.585Z,50.60
2019-02-23T08:50:11.102Z,51.20
2019-02-23T08:52:48.490Z,50.90
2019-02-23T08:55:10.542Z,53.60
2019-02-23T08:57:39.003Z,52.20
2019-02-23T09:00:13.054Z,51.90
2019-02-23T09:02:41.582Z,52.40
2019-02-23T09:05:11.256Z,52.20
2019-02-23T09:07:39.701Z,52.00
2019-02-23T09:10:10.790Z,51.60
2019-02-23T09:12:39.225Z,51.80
2019-02-23T09:15:09.002Z,51.20
2019-02-23T09:17:37.444Z,50.90
2019-02-23T09:20:29.129Z,50.80
2019-02-23T09:23:00.273Z,51.10
2019-02-23T09:25:25.545Z,51.30
2019-02-23T09:27:54.001Z,51.20
2019-02-23T09:30:22.429Z,51.00
2019-02-23T09:32:50.870Z,51.20
2019-02-23T09:35:19.310Z,49.80
2019-02-23T09:37:47.755Z,48.60
2019-02-23T09:40:18.231Z,48.40
2019-02-23T09:42:46.671Z,47.90
2019-02-23T09:45:15.117Z,48.10
2019-02-23T09:47:43.565Z,47.70
2019-02-23T09:50:12.005Z,46.90
2019-02-23T09:52:40.461Z,46.50
2019-02-23T09:55:09.725Z,47.00
2019-02-23T09:57:38.167Z,45.30
2019-02-23T10:00:09.519Z,45.00
2019-02-23T10:02:37.965Z,43.80
2019-02-23T10:05:07.342Z,43.30
2019-02-23T10:07:35.781Z,42.80
2019-02-23T10:10:06.647Z,42.70
2019-02-23T10:12:35.180Z,42.30
2019-02-23T10:15:04.352Z,41.60
2019-02-23T10:17:32.808Z,41.00
2019-02-23T10:20:01.237Z,40.60
2019-02-23T10:22:29.700Z,39.20
2019-02-23T10:24:58.130Z,39.90
2019-02-23T10:27:26.643Z,39.80
2019-02-23T10:29:55.094Z,39.40
2019-02-23T10:32:23.613Z,38.90
2019-02-23T10:34:52.049Z,37.40
2019-02-23T10:37:20.518Z,37.20
2019-02-23T10:39:48.953Z,36.70
2019-02-23T10:42:17.407Z,36.70
2019-02-23T10:44:45.833Z,35.50
2019-02-23T10:47:14.289Z,34.90
2019-02-23T10:49:42.745Z,35.20
2019-02-23T10:52:11.216Z,34.80
2019-02-23T10:54:39.650Z,34.10
2019-02-23T10:57:08.091Z,32.40
2019-02-23T10:59:36.537Z,31.90
2019-02-23T11:02:04.994Z,31.60
2019-02-23T11:04:33.482Z,29.90
2019-02-23T11:07:01.922Z,30.30
2019-02-23T11:09:32.131Z,29.80
2019-02-23T11:12:00.588Z,30.30
2019-02-23T11:14:29.018Z,29.90
2019-02-23T11:16:57.473Z,29.90
2019-02-23T11:19:25.917Z,29.30
2019-02-23T11:21:54.361Z,29.70
2019-02-23T11:24:22.795Z,28.80
2019-02-23T11:26:51.248Z,27.60
2019-02-23T11:29:19.704Z,27.10
2019-02-23T11:31:48.147Z,27.60
2019-02-23T11:34:16.601Z,27.70
2019-02-23T11:36:45.051Z,27.00
2019-02-23T11:39:13.564Z,27.20
2019-02-23T11:41:42.008Z,27.10
2019-02-23T11:44:10.715Z,25.70
2019-02-23T11:46:39.150Z,25.20
2019-02-23T11:49:08.354Z,25.10
2019-02-23T11:51:36.813Z,24.80
2019-02-23T11:54:05.254Z,23.20
2019-02-23T11:56:33.692Z,23.40
2019-02-23T11:59:02.140Z,23.00
2019-02-23T12:01:30.599Z,23.80
2019-02-23T12:03:59.059Z,22.60
2019-02-23T12:06:27.509Z,22.70
2019-02-23T12:08:57.389Z,22.30
2019-02-23T12:11:25.988Z,21.80
2019-02-23T12:13:54.436Z,22.70
2019-02-23T12:16:22.876Z,22.40
2019-02-23T12:18:51.340Z,22.40
2019-02-23T12:21:19.794Z,21.40
2019-02-23T12:23:48.312Z,21.30
2019-02-23T12:26:16.741Z,21.90
2019-02-23T12:28:45.191Z,21.50
2019-02-23T12:31:13.634Z,22.40
2019-02-23T12:33:42.091Z,21.40
2019-02-23T12:36:10.523Z,21.70
2019-02-23T12:38:38.971Z,20.30
2019-02-23T12:41:07.420Z,20.00
2019-02-23T12:43:35.869Z,19.40
2019-02-23T12:46:04.307Z,19.70
2019-02-23T12:48:32.769Z,20.40
2019-02-23T12:51:01.207Z,19.70
2019-02-23T12:53:29.669Z,20.10
2019-02-23T12:55:58.116Z,20.20
2019-02-23T12:58:26.630Z,20.10
2019-02-23T13:00:55.077Z,19.70
2019-02-23T13:03:23.532Z,19.10
2019-02-23T13:05:51.969Z,19.30
2019-02-23T13:08:20.415Z,19.80
2019-02-23T13:10:50.998Z,20.20
2019-02-23T13:13:22.528Z,19.80
2019-02-23T13:15:59.582Z,19.40
2019-02-23T13:18:37.055Z,19.20
2019-02-23T13:21:14.246Z,18.70
2019-02-23T13:24:27.705Z,18.80
2019-02-23T13:26:57.395Z,18.60
2019-02-23T13:29:55.459Z,18.90
2019-02-23T13:32:39.015Z,19.10
2019-02-23T13:35:13.171Z,19.00
2019-02-23T13:37:44.683Z,19.00
2019-02-23T13:40:34.691Z,19.60
2019-02-23T13:43:18.169Z,18.90
2019-02-23T13:45:49.691Z,19.40
2019-02-23T13:48:36.427Z,20.80
2019-02-23T13:51:44.261Z,19.80
2019-02-23T13:54:38.868Z,20.30
2019-02-23T13:57:19.887Z,18.90
2019-02-23T13:59:54.282Z,16.80
2019-02-23T14:02:42.230Z,17.00
2019-02-23T14:05:31.159Z,17.10
2019-02-23T14:08:08.280Z,16.60
2019-02-23T14:10:48.684Z,16.80
2019-02-23T14:13:55.469Z,15.60
2019-02-23T14:16:41.840Z,15.30
2019-02-23T14:19:28.169Z,15.50
2019-02-23T14:22:14.509Z,15.90
2019-02-23T14:24:49.995Z,16.40
2019-02-23T14:27:24.986Z,17.10
2019-02-23T14:30:16.212Z,17.40
2019-02-23T14:33:10.548Z,18.30
2019-02-23T14:35:58.465Z,18.00
2019-02-23T14:38:38.772Z,18.00
2019-02-23T14:41:13.259Z,17.90
2019-02-23T14:44:18.310Z,17.90
2019-02-23T14:47:02.342Z,18.80
2019-02-23T14:49:33.919Z,20.70
2019-02-23T14:52:11.301Z,21.20
2019-02-23T14:55:01.665Z,20.80
2019-02-23T14:57:53.052Z,21.40
2019-02-23T15:00:45.100Z,20.80
2019-02-23T15:03:42.169Z,20.00
2019-02-23T15:06:30.020Z,19.80
2019-02-23T15:09:01.535Z,18.90
2019-02-23T15:11:45.014Z,18.10
2019-02-23T15:14:39.376Z,18.30
2019-02-23T15:17:22.534Z,18.60
2019-02-23T15:20:13.406Z,19.50
2019-02-23T15:23:08.430Z,18.50
2019-02-23T15:25:48.190Z,18.80
2019-02-23T15:28:37.510Z,19.70
2019-02-23T15:31:01.426Z,20.90
2019-02-23T15:33:48.192Z,20.90
2019-02-23T15:36:28.797Z,23.00
2019-02-23T15:39:18.552Z,24.50
2019-02-23T15:42:06.507Z,24.00
2019-02-23T15:44:52.765Z,24.70
2019-02-23T15:47:43.929Z,25.50
2019-02-23T15:50:13.986Z,25.10
2019-02-23T15:52:42.691Z,25.10
2019-02-23T15:55:11.297Z,26.60
2019-02-23T15:57:39.743Z,24.60
2019-02-23T16:00:08.918Z,25.30
2019-02-23T16:02:37.358Z,25.90
2019-02-23T16:05:06.162Z,26.20
2019-02-23T16:07:34.618Z,26.50
2019-02-23T16:10:03.918Z,27.30
2019-02-23T16:12:32.363Z,28.20
2019-02-23T16:15:00.880Z,28.30
2019-02-23T16:17:29.422Z,28.70
2019-02-23T16:19:57.878Z,29.40
2019-02-23T16:22:26.316Z,30.00
2019-02-23T16:24:54.764Z,30.80
2019-02-23T16:27:23.191Z,31.70
2019-02-23T16:29:51.650Z,31.60
2019-02-23T16:32:20.183Z,31.70
2019-02-23T16:34:48.691Z,32.50
2019-02-23T16:37:17.144Z,33.00
2019-02-23T16:39:45.761Z,33.30
2019-02-23T16:42:14.254Z,34.00
2019-02-23T16:44:42.733Z,34.40
2019-02-23T16:47:11.247Z,35.00
2019-02-23T16:49:39.692Z,35.70
2019-02-23T16:52:09.307Z,36.30
2019-02-23T16:54:37.952Z,36.80
2019-02-23T16:57:06.397Z,37.10
2019-02-23T16:59:34.833Z,37.10
2019-02-23T17:02:03.285Z,36.40
2019-02-23T17:04:31.729Z,36.10
2019-02-23T17:07:00.176Z,36.30
2019-02-23T17:09:28.604Z,36.80
2019-02-23T17:11:57.055Z,37.40
2019-02-23T17:14:25.493Z,37.10
2019-02-23T17:16:53.929Z,36.70
2019-02-23T17:19:22.380Z,37.00
2019-02-23T17:21:50.879Z,37.60
2019-02-23T17:24:19.319Z,38.10
2019-02-23T17:26:47.769Z,38.40
2019-02-23T17:29:16.221Z,38.90
2019-02-23T17:31:44.661Z,39.10
2019-02-23T17:34:13.106Z,39.30
2019-02-23T17:36:41.555Z,39.80
2019-02-23T17:39:10.661Z,40.20
2019-02-23T17:41:39.126Z,40.60
2019-02-23T17:44:07.561Z,42.10
2019-02-23T17:46:36.085Z,43.10
2019-02-23T17:49:04.521Z,43.40
2019-02-23T17:51:32.964Z,43.60
2019-02-23T17:54:01.398Z,44.00
2019-02-23T17:56:29.841Z,43.80
2019-02-23T17:58:58.294Z,44.10
2019-02-23T18:01:26.761Z,44.60
2019-02-23T18:03:55.199Z,45.10
2019-02-23T18:06:23.657Z,45.20
2019-02-23T18:08:52.079Z,46.20
2019-02-23T18:11:22.159Z,47.20
2019-02-23T18:13:50.602Z,46.80
2019-02-23T18:16:19.053Z,47.20
2019-02-23T18:18:47.483Z,49.10
2019-02-23T18:21:15.950Z,51.10
2019-02-23T18:23:44.381Z,50.00
2019-02-23T18:26:20.569Z,48.60
2019-02-23T18:28:43.263Z,47.50
2019-02-23T18:31:11.724Z,47.10
2019-02-23T18:33:40.338Z,47.30
2019-02-23T18:36:08.794Z,48.80
2019-02-23T18:38:37.410Z,49.20
2019-02-23T18:41:05.912Z,47.10
2019-02-23T18:43:34.473Z,48.50
2019-02-23T18:46:02.924Z,48.90
2019-02-23T18:48:31.386Z,47.90
2019-02-23T18:50:59.827Z,46.50
2019-02-23T18:53:28.284Z,45.20
2019-02-23T18:55:56.755Z,46.90
2019-02-23T18:58:25.210Z,46.10
2019-02-23T19:00:53.666Z,45.90
2019-02-23T19:03:22.200Z,46.80
2019-02-23T19:05:50.705Z,46.50
2019-02-23T19:08:19.152Z,47.20
2019-02-23T19:10:47.592Z,46.50
2019-02-23T19:13:16.039Z,47.20
2019-02-23T19:15:46.125Z,47.50
2019-02-23T19:18:14.572Z,48.40
2019-02-23T19:20:43.131Z,50.30
2019-02-23T19:23:11.601Z,48.90
2019-02-23T19:25:40.056Z,48.60
2019-02-23T19:28:08.512Z,48.20
2019-02-23T19:30:37.018Z,46.50
2019-02-23T19:33:05.467Z,47.40
2019-02-23T19:35:36.898Z,47.20
2019-02-23T19:38:05.351Z,47.00
2019-02-23T19:40:33.831Z,46.70
2019-02-23T19:43:02.377Z,47.00
2019-02-23T19:45:32.702Z,47.80
2019-02-23T19:48:02.770Z,48.20
2019-02-23T19:50:37.056Z,48.00
2019-02-23T19:53:11.190Z,47.50
2019-02-23T19:55:38.742Z,47.90
2019-02-23T19:58:07.320Z,47.50
2019-02-23T20:00:35.756Z,47.50
2019-02-23T20:03:04.248Z,47.50
2019-02-23T20:05:32.700Z,47.70
2019-02-23T20:08:01.275Z,47.60
2019-02-23T20:10:29.742Z,47.50
2019-02-23T20:12:58.281Z,47.70
2019-02-23T20:15:26.788Z,48.60
2019-02-23T20:17:55.311Z,48.20
2019-02-23T20:20:23.773Z,48.40
2019-02-23T20:22:52.226Z,48.90
2019-02-23T20:25:20.734Z,49.30
2019-02-23T20:27:49.173Z,49.50
2019-02-23T20:30:17.690Z,49.60
2019-02-23T20:32:46.133Z,49.50
2019-02-23T20:35:14.738Z,50.00
2019-02-23T20:37:43.242Z,50.10
2019-02-23T20:40:11.762Z,50.00
2019-02-23T20:42:40.211Z,50.80
2019-02-23T20:45:09.686Z,52.10
2019-02-23T20:47:38.208Z,52.70
2019-02-23T20:50:10.759Z,52.10
2019-02-23T20:52:39.204Z,53.00
2019-02-23T20:55:08.892Z,52.80
2019-02-23T20:57:37.330Z,52.80
2019-02-23T21:00:08.916Z,53.30
2019-02-23T21:02:37.370Z,54.00
2019-02-23T21:05:12.049Z,54.20
2019-02-23T21:07:40.486Z,54.40
2019-02-23T21:10:10.245Z,54.80
2019-02-23T21:12:38.698Z,55.00
2019-02-23T21:15:09.447Z,55.20
2019-02-23T21:17:37.886Z,54.50
2019-02-23T21:20:08.851Z,54.60
2019-02-23T21:22:37.290Z,55.40
2019-02-23T21:25:07.468Z,55.10
2019-02-23T21:27:35.979Z,56.10
2019-02-23T21:30:06.954Z,55.10
2019-02-23T21:32:35.392Z,54.80
2019-02-23T21:35:05.170Z,54.50
2019-02-23T21:37:33.610Z,55.50
2019-02-23T21:40:02.068Z,54.60
2019-02-23T21:42:32.133Z,55.20
2019-02-23T21:45:00.834Z,55.00
2019-02-23T21:47:29.286Z,54.90
2019-02-23T21:49:57.796Z,55.70
2019-02-23T21:52:26.293Z,56.20
2019-02-23T21:54:54.803Z,55.70
2019-02-23T21:57:23.243Z,55.50
2019-02-23T21:59:51.704Z,55.40
2019-02-23T22:02:20.276Z,55.80
2019-02-23T22:04:48.792Z,55.90
2019-02-23T22:07:17.289Z,55.60
2019-02-23T22:09:45.749Z,55.80
2019-02-23T22:12:14.197Z,56.50
2019-02-23T22:14:42.702Z,57.70
2019-02-23T22:17:11.136Z,58.10
2019-02-23T22:19:39.598Z,58.00
2019-02-23T22:22:08.026Z,58.50
2019-02-23T22:24:36.469Z,58.60
2019-02-23T22:27:04.916Z,58.90
2019-02-23T22:29:33.439Z,58.90
2019-02-23T22:32:01.957Z,58.80
2019-02-23T22:34:30.487Z,59.50
2019-02-23T22:36:58.932Z,61.90
2019-02-23T22:39:27.387Z,60.80
2019-02-23T22:41:55.833Z,60.50
2019-02-23T22:44:24.296Z,62.10
2019-02-23T22:46:53.554Z,61.90
2019-02-23T22:49:21.994Z,60.90
2019-02-23T22:51:50.439Z,60.80
2019-02-23T22:54:18.890Z,60.70
2019-02-23T22:56:47.381Z,60.30
2019-02-23T22:59:15.864Z,60.20
2019-02-23T23:01:44.730Z,60.60
2019-02-23T23:04:13.186Z,60.50
2019-02-23T23:06:41.619Z,60.20
2019-02-23T23:09:11.706Z,60.30
2019-02-23T23:11:40.142Z,60.70
2019-02-23T23:14:08.581Z,61.20
2019-02-23T23:16:37.022Z,60.70
2019-02-23T23:19:05.466Z,62.50
2019-02-23T23:21:33.897Z,63.60
2019-02-23T23:24:02.347Z,62.60
2019-02-23T23:26:30.786Z,62.90
2019-02-23T23:28:59.251Z,66.00
2019-02-23T23:31:27.681Z,67.30
2019-02-23T23:33:56.213Z,66.40
2019-02-23T23:36:25.327Z,66.20
2019-02-23T23:38:53.763Z,66.50
2019-02-23T23:41:22.205Z,64.80
2019-02-23T23:43:50.673Z,64.60
2019-02-23T23:46:19.107Z,65.90
2019-02-23T23:48:47.618Z,64.50
2019-02-23T23:51:16.065Z,64.80
2019-02-23T23:53:44.495Z,65.40
2019-02-23T23:56:12.930Z,65.50
2019-02-23T23:58:41.363Z,64.30
